RYR5TN EDDN-EGSS
Flight info
| Callsign | RYR5TN |
|---|---|
| Flight time | 1h 21m |
| Altitude | 36000 |
| Route | SULUS1G SULUS L604 BIGGE DCT NOGRO M40 RINIS |
| Aircraft | B738/M-SDE2E3FGHIRWXY/LB1 |
Departure
| Time | 2026-05-06 18:13 |
|---|---|
| Airport | Nuremberg Airport (EDDN) |
Arrival
| Time | 2026-05-06 19:35 |
|---|---|
| Airport | London Stansted Airport (EGSS) |
| Time | Latitude | Longitude | Altitude | Speed | Heading |
|---|---|---|---|---|---|
| 2026-05-06 17:41 | 49.49546 | 11.07518 | 1027 ft | 0 kts | 189° |
| 2026-05-06 18:03 | 49.49558 | 11.07521 | 1027 ft | 4 kts | 185° |
| 2026-05-06 18:03 | 49.49585 | 11.07521 | 1028 ft | 4 kts | 168° |
| 2026-05-06 18:03 | 49.49608 | 11.07507 | 1027 ft | 4 kts | 129° |
| 2026-05-06 18:03 | 49.49614 | 11.07489 | 1028 ft | 0 kts | 98° |
| 2026-05-06 18:07 | 49.49609 | 11.07539 | 1027 ft | 10 kts | 98° |
| 2026-05-06 18:07 | 49.49598 | 11.07651 | 1029 ft | 9 kts | 98° |
| 2026-05-06 18:08 | 49.49591 | 11.07741 | 1028 ft | 8 kts | 101° |
| 2026-05-06 18:08 | 49.49581 | 11.07827 | 1029 ft | 8 kts | 95° |
| 2026-05-06 18:08 | 49.49574 | 11.07900 | 1030 ft | 7 kts | 98° |
| 2026-05-06 18:08 | 49.49567 | 11.07970 | 1031 ft | 7 kts | 99° |
| 2026-05-06 18:09 | 49.49559 | 11.08051 | 1031 ft | 11 kts | 98° |
| 2026-05-06 18:09 | 49.49545 | 11.08188 | 1032 ft | 13 kts | 99° |
| 2026-05-06 18:09 | 49.49536 | 11.08300 | 1034 ft | 10 kts | 87° |
| 2026-05-06 18:09 | 49.49588 | 11.08357 | 1035 ft | 10 kts | 28° |
| 2026-05-06 18:10 | 49.49614 | 11.08445 | 1036 ft | 10 kts | 96° |
| 2026-05-06 18:10 | 49.49605 | 11.08546 | 1038 ft | 9 kts | 98° |
| 2026-05-06 18:10 | 49.49595 | 11.08649 | 1040 ft | 11 kts | 98° |
| 2026-05-06 18:10 | 49.49581 | 11.08792 | 1042 ft | 16 kts | 98° |
| 2026-05-06 18:11 | 49.49562 | 11.08973 | 1044 ft | 17 kts | 99° |
| 2026-05-06 18:11 | 49.49546 | 11.09145 | 1047 ft | 15 kts | 96° |
| 2026-05-06 18:11 | 49.49534 | 11.09294 | 1051 ft | 13 kts | 97° |
| 2026-05-06 18:11 | 49.49557 | 11.09421 | 1055 ft | 12 kts | 54° |
| 2026-05-06 18:12 | 49.49606 | 11.09518 | 1057 ft | 11 kts | 51° |
| 2026-05-06 18:12 | 49.49671 | 11.09570 | 1060 ft | 10 kts | 352° |
| 2026-05-06 18:12 | 49.49701 | 11.09506 | 1059 ft | 8 kts | 278° |
| 2026-05-06 18:12 | 49.49702 | 11.09496 | 1059 ft | 0 kts | 278° |
| 2026-05-06 18:13 | 49.49723 | 11.09287 | 1054 ft | 56 kts | 279° |
| 2026-05-06 18:13 | 49.49818 | 11.08311 | 1034 ft | 126 kts | 278° |
| 2026-05-06 18:13 | 49.49986 | 11.06745 | 1256 ft | 161 kts | 279° |
| 2026-05-06 18:13 | 49.50165 | 11.05054 | 2132 ft | 159 kts | 279° |
| 2026-05-06 18:14 | 49.50334 | 11.03360 | 2908 ft | 167 kts | 278° |
| 2026-05-06 18:14 | 49.50497 | 11.01494 | 3470 ft | 188 kts | 278° |
| 2026-05-06 18:14 | 49.50679 | 10.99412 | 3924 ft | 203 kts | 277° |
| 2026-05-06 18:14 | 49.50878 | 10.97196 | 4375 ft | 215 kts | 281° |
| 2026-05-06 18:15 | 49.51581 | 10.95087 | 4739 ft | 234 kts | 313° |
| 2026-05-06 18:15 | 49.52882 | 10.93470 | 5171 ft | 252 kts | 325° |
| 2026-05-06 18:15 | 49.54581 | 10.92510 | 5660 ft | 272 kts | 354° |
| 2026-05-06 18:15 | 49.56496 | 10.92526 | 6507 ft | 278 kts | 360° |
| 2026-05-06 18:16 | 49.58440 | 10.92605 | 7356 ft | 281 kts | 0° |
| 2026-05-06 18:16 | 49.60413 | 10.92677 | 8186 ft | 286 kts | 360° |
| 2026-05-06 18:16 | 49.62418 | 10.92740 | 9016 ft | 291 kts | 359° |
| 2026-05-06 18:16 | 49.64454 | 10.92794 | 9845 ft | 295 kts | 359° |
| 2026-05-06 18:17 | 49.66553 | 10.92848 | 10319 ft | 313 kts | 359° |
| 2026-05-06 18:17 | 49.68820 | 10.92906 | 10527 ft | 338 kts | 359° |
| 2026-05-06 18:17 | 49.71194 | 10.92569 | 11019 ft | 347 kts | 342° |
| 2026-05-06 18:17 | 49.73483 | 10.91373 | 11829 ft | 348 kts | 338° |
| 2026-05-06 18:18 | 49.75774 | 10.90102 | 12633 ft | 352 kts | 338° |
| 2026-05-06 18:18 | 49.78094 | 10.88815 | 13426 ft | 357 kts | 339° |
| 2026-05-06 18:18 | 49.80442 | 10.87521 | 14124 ft | 361 kts | 339° |
| 2026-05-06 18:18 | 49.82826 | 10.86225 | 14806 ft | 365 kts | 339° |
| 2026-05-06 18:19 | 49.85237 | 10.84923 | 15504 ft | 369 kts | 339° |
| 2026-05-06 18:19 | 49.87664 | 10.83569 | 16172 ft | 372 kts | 335° |
| 2026-05-06 18:19 | 49.89916 | 10.81587 | 16827 ft | 373 kts | 320° |
| 2026-05-06 18:19 | 49.91822 | 10.78863 | 17533 ft | 374 kts | 311° |
| 2026-05-06 18:20 | 49.93633 | 10.75946 | 18201 ft | 377 kts | 311° |
| 2026-05-06 18:20 | 49.95451 | 10.72988 | 18785 ft | 381 kts | 311° |
| 2026-05-06 18:20 | 49.97263 | 10.70038 | 19372 ft | 384 kts | 311° |
| 2026-05-06 18:20 | 49.99138 | 10.66995 | 19976 ft | 387 kts | 311° |
| 2026-05-06 18:21 | 50.01009 | 10.63965 | 20560 ft | 390 kts | 311° |
| 2026-05-06 18:21 | 50.02874 | 10.60953 | 21143 ft | 393 kts | 311° |
| 2026-05-06 18:21 | 50.04809 | 10.57836 | 21717 ft | 397 kts | 311° |
| 2026-05-06 18:21 | 50.06733 | 10.54733 | 22289 ft | 400 kts | 311° |
| 2026-05-06 18:22 | 50.08677 | 10.51599 | 22807 ft | 404 kts | 311° |
| 2026-05-06 18:22 | 50.10636 | 10.48438 | 23322 ft | 408 kts | 311° |
| 2026-05-06 18:22 | 50.12588 | 10.45282 | 23771 ft | 411 kts | 311° |
| 2026-05-06 18:22 | 50.14604 | 10.42021 | 24222 ft | 414 kts | 311° |
| 2026-05-06 18:23 | 50.16609 | 10.38775 | 24636 ft | 417 kts | 311° |
| 2026-05-06 18:23 | 50.18630 | 10.35497 | 25048 ft | 421 kts | 311° |
| 2026-05-06 18:23 | 50.20663 | 10.32196 | 25499 ft | 423 kts | 311° |
| 2026-05-06 18:23 | 50.22702 | 10.28880 | 25954 ft | 424 kts | 310° |
| 2026-05-06 18:24 | 50.24746 | 10.25545 | 26366 ft | 427 kts | 311° |
| 2026-05-06 18:24 | 50.26816 | 10.22171 | 26756 ft | 430 kts | 311° |
| 2026-05-06 18:24 | 50.28892 | 10.18784 | 27147 ft | 433 kts | 310° |
| 2026-05-06 18:24 | 50.30978 | 10.15375 | 27554 ft | 435 kts | 311° |
| 2026-05-06 18:25 | 50.33088 | 10.11921 | 27943 ft | 438 kts | 311° |
| 2026-05-06 18:25 | 50.35187 | 10.08480 | 28311 ft | 440 kts | 311° |
| 2026-05-06 18:25 | 50.37309 | 10.04995 | 28681 ft | 443 kts | 311° |
| 2026-05-06 18:25 | 50.39411 | 10.01541 | 29034 ft | 445 kts | 311° |
| 2026-05-06 18:26 | 50.41495 | 9.97936 | 29356 ft | 446 kts | 304° |
| 2026-05-06 18:26 | 50.43158 | 9.93855 | 29640 ft | 445 kts | 293° |
| 2026-05-06 18:26 | 50.44396 | 9.89347 | 29980 ft | 444 kts | 289° |
| 2026-05-06 18:26 | 50.45550 | 9.84853 | 30276 ft | 445 kts | 289° |
| 2026-05-06 18:27 | 50.46690 | 9.80390 | 30585 ft | 446 kts | 288° |
| 2026-05-06 18:27 | 50.47861 | 9.75821 | 31077 ft | 443 kts | 288° |
| 2026-05-06 18:27 | 50.49012 | 9.71345 | 31452 ft | 443 kts | 288° |
| 2026-05-06 18:27 | 50.50174 | 9.66858 | 31755 ft | 444 kts | 288° |
| 2026-05-06 18:28 | 50.51322 | 9.62426 | 32140 ft | 443 kts | 288° |
| 2026-05-06 18:28 | 50.52482 | 9.57966 | 32578 ft | 440 kts | 288° |
| 2026-05-06 18:28 | 50.53636 | 9.53520 | 32998 ft | 438 kts | 288° |
| 2026-05-06 18:28 | 50.54785 | 9.49095 | 33375 ft | 437 kts | 288° |
| 2026-05-06 18:29 | 50.55934 | 9.44664 | 33722 ft | 437 kts | 288° |
| 2026-05-06 18:29 | 50.57077 | 9.40246 | 34036 ft | 436 kts | 288° |
| 2026-05-06 18:29 | 50.58215 | 9.35835 | 34319 ft | 435 kts | 288° |
| 2026-05-06 18:29 | 50.59352 | 9.31413 | 34542 ft | 436 kts | 288° |
| 2026-05-06 18:30 | 50.60486 | 9.26983 | 34769 ft | 437 kts | 289° |
| 2026-05-06 18:30 | 50.61623 | 9.22547 | 35030 ft | 437 kts | 289° |
| 2026-05-06 18:30 | 50.62757 | 9.18119 | 35298 ft | 436 kts | 289° |
| 2026-05-06 18:30 | 50.63890 | 9.13682 | 35531 ft | 436 kts | 289° |
| 2026-05-06 18:31 | 50.65022 | 9.09240 | 35755 ft | 437 kts | 288° |
| 2026-05-06 18:31 | 50.66155 | 9.04778 | 35788 ft | 441 kts | 288° |
| 2026-05-06 18:31 | 50.68438 | 8.95770 | 35799 ft | 441 kts | 288° |
| 2026-05-06 18:32 | 50.70688 | 8.86850 | 35797 ft | 434 kts | 288° |
| 2026-05-06 18:32 | 50.72911 | 8.78004 | 35815 ft | 433 kts | 288° |
| 2026-05-06 18:33 | 50.75129 | 8.69158 | 35812 ft | 434 kts | 288° |
| 2026-05-06 18:33 | 50.77339 | 8.60303 | 35817 ft | 434 kts | 288° |
| 2026-05-06 18:34 | 50.79541 | 8.51439 | 35812 ft | 431 kts | 288° |
| 2026-05-06 18:34 | 50.81712 | 8.42674 | 35829 ft | 427 kts | 288° |
| 2026-05-06 18:35 | 50.83871 | 8.33909 | 35827 ft | 427 kts | 288° |
| 2026-05-06 18:35 | 50.86032 | 8.25108 | 35906 ft | 432 kts | 288° |
| 2026-05-06 18:36 | 50.87111 | 8.20702 | 36294 ft | 427 kts | 288° |
| 2026-05-06 18:36 | 50.88180 | 8.16325 | 36657 ft | 424 kts | 288° |
| 2026-05-06 18:36 | 50.89238 | 8.11991 | 37032 ft | 421 kts | 288° |
| 2026-05-06 18:36 | 50.90286 | 8.07689 | 37382 ft | 418 kts | 288° |
| 2026-05-06 18:37 | 50.91330 | 8.03390 | 37628 ft | 417 kts | 288° |
| 2026-05-06 18:37 | 50.92015 | 8.00562 | 37816 ft | 416 kts | 288° |
| 2026-05-06 18:37 | 50.94443 | 7.90506 | 37837 ft | 425 kts | 288° |
| 2026-05-06 18:38 | 50.96567 | 7.81677 | 37858 ft | 432 kts | 288° |
| 2026-05-06 18:38 | 50.98722 | 7.72673 | 37861 ft | 440 kts | 288° |
| 2026-05-06 18:39 | 51.00896 | 7.63566 | 37846 ft | 443 kts | 288° |
| 2026-05-06 18:40 | 51.04176 | 7.49780 | 37862 ft | 443 kts | 288° |
| 2026-05-06 18:40 | 51.06330 | 7.40666 | 37867 ft | 434 kts | 288° |
| 2026-05-06 18:41 | 51.08432 | 7.31740 | 37886 ft | 434 kts | 288° |
| 2026-05-06 18:41 | 51.10196 | 7.24208 | 37881 ft | 434 kts | 288° |
| 2026-05-06 18:42 | 51.12638 | 7.13739 | 37879 ft | 434 kts | 288° |
| 2026-05-06 18:42 | 51.14736 | 7.04709 | 37894 ft | 437 kts | 288° |
| 2026-05-06 18:43 | 51.16494 | 6.97112 | 37894 ft | 441 kts | 288° |
| 2026-05-06 18:43 | 51.18619 | 6.87892 | 37893 ft | 445 kts | 288° |
| 2026-05-06 18:44 | 51.20763 | 6.78545 | 37886 ft | 445 kts | 288° |
| 2026-05-06 18:44 | 51.22863 | 6.69369 | 37873 ft | 436 kts | 288° |
| 2026-05-06 18:45 | 51.24926 | 6.60304 | 37893 ft | 434 kts | 288° |
| 2026-05-06 18:45 | 51.26972 | 6.51245 | 37885 ft | 433 kts | 288° |
| 2026-05-06 18:46 | 51.28996 | 6.42246 | 37880 ft | 433 kts | 287° |
| 2026-05-06 18:46 | 51.31004 | 6.33168 | 37890 ft | 434 kts | 287° |
| 2026-05-06 18:47 | 51.33045 | 6.24078 | 37910 ft | 435 kts | 288° |
| 2026-05-06 18:47 | 51.35085 | 6.14959 | 37915 ft | 436 kts | 288° |
| 2026-05-06 18:48 | 51.37120 | 6.05795 | 37914 ft | 438 kts | 287° |
| 2026-05-06 18:48 | 51.39152 | 5.96589 | 37913 ft | 439 kts | 287° |
| 2026-05-06 18:49 | 51.41179 | 5.87362 | 37918 ft | 440 kts | 287° |
| 2026-05-06 18:49 | 51.43203 | 5.78111 | 37914 ft | 440 kts | 287° |
| 2026-05-06 18:50 | 51.45222 | 5.68838 | 37920 ft | 441 kts | 287° |
| 2026-05-06 18:50 | 51.47235 | 5.59556 | 37912 ft | 441 kts | 287° |
| 2026-05-06 18:51 | 51.49237 | 5.50276 | 37909 ft | 440 kts | 287° |
| 2026-05-06 18:51 | 51.51229 | 5.41003 | 37910 ft | 439 kts | 287° |
| 2026-05-06 18:52 | 51.53210 | 5.31741 | 37911 ft | 438 kts | 287° |
| 2026-05-06 18:52 | 51.55178 | 5.22496 | 37922 ft | 437 kts | 287° |
| 2026-05-06 18:53 | 51.57135 | 5.13261 | 37939 ft | 436 kts | 287° |
| 2026-05-06 18:53 | 51.59083 | 5.04029 | 37936 ft | 436 kts | 287° |
| 2026-05-06 18:54 | 51.61020 | 4.94803 | 37939 ft | 435 kts | 287° |
| 2026-05-06 18:54 | 51.62949 | 4.85576 | 37940 ft | 434 kts | 287° |
| 2026-05-06 18:55 | 51.64868 | 4.76351 | 37943 ft | 434 kts | 287° |
| 2026-05-06 18:55 | 51.66778 | 4.67126 | 37930 ft | 434 kts | 287° |
| 2026-05-06 18:56 | 51.68681 | 4.57898 | 37933 ft | 434 kts | 287° |
| 2026-05-06 18:56 | 51.70575 | 4.48667 | 37935 ft | 434 kts | 287° |
| 2026-05-06 18:57 | 51.72462 | 4.39428 | 37937 ft | 434 kts | 287° |
| 2026-05-06 18:57 | 51.74340 | 4.30186 | 37936 ft | 434 kts | 287° |
| 2026-05-06 18:58 | 51.76215 | 4.20921 | 37934 ft | 434 kts | 287° |
| 2026-05-06 18:58 | 51.78081 | 4.11653 | 37735 ft | 438 kts | 287° |
| 2026-05-06 18:58 | 51.79021 | 4.06965 | 37359 ft | 437 kts | 287° |
| 2026-05-06 18:59 | 51.79949 | 4.02330 | 36928 ft | 432 kts | 287° |
| 2026-05-06 18:59 | 51.80869 | 3.97726 | 36552 ft | 427 kts | 287° |
| 2026-05-06 18:59 | 51.81775 | 3.93180 | 36166 ft | 423 kts | 287° |
| 2026-05-06 18:59 | 51.82671 | 3.88674 | 35800 ft | 419 kts | 287° |
| 2026-05-06 19:00 | 51.83556 | 3.84212 | 35419 ft | 415 kts | 287° |
| 2026-05-06 19:00 | 51.84432 | 3.79783 | 35043 ft | 412 kts | 286° |
| 2026-05-06 19:00 | 51.85299 | 3.75389 | 34666 ft | 408 kts | 287° |
| 2026-05-06 19:00 | 51.86146 | 3.71089 | 34302 ft | 405 kts | 287° |
| 2026-05-06 19:01 | 51.86996 | 3.66765 | 33935 ft | 401 kts | 287° |
| 2026-05-06 19:01 | 51.87837 | 3.62479 | 33499 ft | 398 kts | 287° |
| 2026-05-06 19:01 | 51.88669 | 3.58224 | 33090 ft | 395 kts | 287° |
| 2026-05-06 19:01 | 51.89490 | 3.54022 | 32752 ft | 390 kts | 286° |
| 2026-05-06 19:02 | 51.90303 | 3.49846 | 32354 ft | 387 kts | 287° |
| 2026-05-06 19:02 | 51.91108 | 3.45703 | 32001 ft | 384 kts | 286° |
| 2026-05-06 19:02 | 51.91903 | 3.41603 | 31655 ft | 380 kts | 286° |
| 2026-05-06 19:02 | 51.92690 | 3.37540 | 31316 ft | 376 kts | 285° |
| 2026-05-06 19:03 | 51.93468 | 3.33507 | 30962 ft | 374 kts | 286° |
| 2026-05-06 19:03 | 51.94241 | 3.29504 | 30621 ft | 370 kts | 285° |
| 2026-05-06 19:03 | 51.95004 | 3.25536 | 30284 ft | 367 kts | 285° |
| 2026-05-06 19:03 | 51.95760 | 3.21598 | 29933 ft | 365 kts | 284° |
| 2026-05-06 19:04 | 51.96284 | 3.17614 | 29560 ft | 359 kts | 275° |
| 2026-05-06 19:04 | 51.96398 | 3.13614 | 29248 ft | 352 kts | 265° |
| 2026-05-06 19:04 | 51.96170 | 3.09684 | 28899 ft | 348 kts | 263° |
| 2026-05-06 19:04 | 51.95899 | 3.05810 | 28567 ft | 344 kts | 262° |
| 2026-05-06 19:05 | 51.95625 | 3.01978 | 28206 ft | 341 kts | 262° |
| 2026-05-06 19:05 | 51.95358 | 2.98184 | 27903 ft | 337 kts | 263° |
| 2026-05-06 19:05 | 51.95097 | 2.94422 | 27538 ft | 335 kts | 263° |
| 2026-05-06 19:05 | 51.94842 | 2.90694 | 27234 ft | 331 kts | 263° |
| 2026-05-06 19:06 | 51.94590 | 2.86989 | 26884 ft | 329 kts | 263° |
| 2026-05-06 19:06 | 51.94340 | 2.83312 | 26558 ft | 327 kts | 263° |
| 2026-05-06 19:06 | 51.94091 | 2.79665 | 26232 ft | 325 kts | 263° |
| 2026-05-06 19:06 | 51.93845 | 2.76042 | 25917 ft | 322 kts | 263° |
| 2026-05-06 19:07 | 51.93597 | 2.72440 | 25593 ft | 320 kts | 263° |
| 2026-05-06 19:07 | 51.93350 | 2.68872 | 25290 ft | 318 kts | 263° |
| 2026-05-06 19:07 | 51.93103 | 2.65301 | 24970 ft | 319 kts | 263° |
| 2026-05-06 19:07 | 51.92858 | 2.61739 | 24657 ft | 318 kts | 263° |
| 2026-05-06 19:08 | 51.92612 | 2.58156 | 24350 ft | 323 kts | 263° |
| 2026-05-06 19:08 | 51.92361 | 2.54504 | 24035 ft | 329 kts | 263° |
| 2026-05-06 19:08 | 51.92106 | 2.50822 | 23703 ft | 329 kts | 263° |
| 2026-05-06 19:08 | 51.91851 | 2.47156 | 23341 ft | 327 kts | 263° |
| 2026-05-06 19:09 | 51.91597 | 2.43504 | 22965 ft | 326 kts | 263° |
| 2026-05-06 19:09 | 51.91343 | 2.39876 | 22621 ft | 323 kts | 263° |
| 2026-05-06 19:09 | 51.91089 | 2.36279 | 22291 ft | 320 kts | 263° |
| 2026-05-06 19:09 | 51.90836 | 2.32712 | 21964 ft | 318 kts | 264° |
| 2026-05-06 19:10 | 51.90670 | 2.29151 | 21634 ft | 316 kts | 267° |
| 2026-05-06 19:10 | 51.90592 | 2.25599 | 21323 ft | 316 kts | 268° |
| 2026-05-06 19:10 | 51.90532 | 2.22039 | 21003 ft | 317 kts | 268° |
| 2026-05-06 19:10 | 51.90469 | 2.18470 | 20683 ft | 317 kts | 268° |
| 2026-05-06 19:11 | 51.90398 | 2.14904 | 20367 ft | 317 kts | 268° |
| 2026-05-06 19:11 | 51.90321 | 2.11343 | 20044 ft | 316 kts | 268° |
| 2026-05-06 19:11 | 51.90241 | 2.07788 | 19725 ft | 315 kts | 268° |
| 2026-05-06 19:11 | 51.90158 | 2.04258 | 19401 ft | 313 kts | 268° |
| 2026-05-06 19:12 | 51.90074 | 2.00747 | 19081 ft | 311 kts | 268° |
| 2026-05-06 19:12 | 51.89989 | 1.97259 | 18770 ft | 309 kts | 268° |
| 2026-05-06 19:12 | 51.89902 | 1.93793 | 18467 ft | 307 kts | 268° |
| 2026-05-06 19:12 | 51.89830 | 1.90345 | 18129 ft | 306 kts | 272° |
| 2026-05-06 19:13 | 51.90265 | 1.87012 | 17805 ft | 303 kts | 292° |
| 2026-05-06 19:13 | 51.91175 | 1.83974 | 17547 ft | 299 kts | 297° |
| 2026-05-06 19:13 | 51.92160 | 1.81027 | 17273 ft | 296 kts | 298° |
| 2026-05-06 19:13 | 51.93152 | 1.78114 | 17014 ft | 295 kts | 298° |
| 2026-05-06 19:14 | 51.94141 | 1.75196 | 16765 ft | 296 kts | 298° |
| 2026-05-06 19:14 | 51.95125 | 1.72266 | 16504 ft | 296 kts | 297° |
| 2026-05-06 19:14 | 51.96104 | 1.69331 | 16251 ft | 296 kts | 297° |
| 2026-05-06 19:14 | 51.97078 | 1.66392 | 15988 ft | 296 kts | 297° |
| 2026-05-06 19:15 | 51.98050 | 1.63446 | 15733 ft | 296 kts | 297° |
| 2026-05-06 19:15 | 51.99021 | 1.60495 | 15476 ft | 297 kts | 297° |
| 2026-05-06 19:15 | 51.99991 | 1.57541 | 15216 ft | 297 kts | 297° |
| 2026-05-06 19:15 | 52.00956 | 1.54595 | 14956 ft | 294 kts | 297° |
| 2026-05-06 19:16 | 52.01912 | 1.51674 | 14697 ft | 291 kts | 297° |
| 2026-05-06 19:16 | 52.02854 | 1.48788 | 14439 ft | 287 kts | 297° |
| 2026-05-06 19:16 | 52.03784 | 1.45938 | 14187 ft | 285 kts | 297° |
| 2026-05-06 19:16 | 52.04712 | 1.43094 | 13941 ft | 285 kts | 298° |
| 2026-05-06 19:17 | 52.05639 | 1.40253 | 13686 ft | 285 kts | 298° |
| 2026-05-06 19:17 | 52.06563 | 1.37413 | 13410 ft | 284 kts | 298° |
| 2026-05-06 19:17 | 52.07485 | 1.34572 | 13147 ft | 284 kts | 298° |
| 2026-05-06 19:17 | 52.08404 | 1.31738 | 12909 ft | 284 kts | 298° |
| 2026-05-06 19:18 | 52.09321 | 1.28898 | 12642 ft | 283 kts | 298° |
| 2026-05-06 19:18 | 52.10236 | 1.26063 | 12387 ft | 283 kts | 298° |
| 2026-05-06 19:18 | 52.11144 | 1.23229 | 12145 ft | 282 kts | 295° |
| 2026-05-06 19:18 | 52.11571 | 1.20138 | 11902 ft | 283 kts | 270° |
| 2026-05-06 19:19 | 52.11308 | 1.16985 | 11727 ft | 282 kts | 258° |
| 2026-05-06 19:19 | 52.10817 | 1.13906 | 11522 ft | 281 kts | 256° |
| 2026-05-06 19:19 | 52.10281 | 1.10856 | 11322 ft | 280 kts | 256° |
| 2026-05-06 19:19 | 52.09744 | 1.07819 | 11123 ft | 279 kts | 256° |
| 2026-05-06 19:20 | 52.09214 | 1.04782 | 10926 ft | 279 kts | 256° |
| 2026-05-06 19:20 | 52.08691 | 1.01747 | 10728 ft | 279 kts | 256° |
| 2026-05-06 19:20 | 52.08174 | 0.98713 | 10530 ft | 279 kts | 256° |
| 2026-05-06 19:20 | 52.07658 | 0.95670 | 10339 ft | 279 kts | 256° |
| 2026-05-06 19:21 | 52.07146 | 0.92636 | 10148 ft | 278 kts | 256° |
| 2026-05-06 19:21 | 52.06645 | 0.89668 | 9944 ft | 274 kts | 256° |
| 2026-05-06 19:21 | 52.06140 | 0.86676 | 9736 ft | 270 kts | 256° |
| 2026-05-06 19:21 | 52.05652 | 0.83782 | 9537 ft | 269 kts | 256° |
| 2026-05-06 19:22 | 52.05151 | 0.80812 | 9351 ft | 270 kts | 256° |
| 2026-05-06 19:22 | 52.04653 | 0.77864 | 9144 ft | 271 kts | 256° |
| 2026-05-06 19:22 | 52.04161 | 0.74956 | 8947 ft | 271 kts | 256° |
| 2026-05-06 19:22 | 52.03661 | 0.72005 | 8753 ft | 271 kts | 256° |
| 2026-05-06 19:23 | 52.03161 | 0.69054 | 8549 ft | 270 kts | 256° |
| 2026-05-06 19:23 | 52.02647 | 0.66106 | 8347 ft | 266 kts | 251° |
| 2026-05-06 19:23 | 52.01735 | 0.63525 | 8163 ft | 263 kts | 234° |
| 2026-05-06 19:23 | 52.00598 | 0.61237 | 8007 ft | 257 kts | 231° |
| 2026-05-06 19:24 | 51.99465 | 0.59039 | 7799 ft | 254 kts | 231° |
| 2026-05-06 19:24 | 51.98318 | 0.56822 | 7451 ft | 257 kts | 231° |
| 2026-05-06 19:24 | 51.97172 | 0.54605 | 7197 ft | 255 kts | 231° |
| 2026-05-06 19:24 | 51.96039 | 0.52417 | 6994 ft | 252 kts | 231° |
| 2026-05-06 19:25 | 51.94914 | 0.50245 | 6739 ft | 251 kts | 231° |
| 2026-05-06 19:25 | 51.94173 | 0.48814 | 6578 ft | 250 kts | 231° |
| 2026-05-06 19:25 | 51.93076 | 0.46629 | 6320 ft | 250 kts | 230° |
| 2026-05-06 19:25 | 51.92012 | 0.44403 | 6051 ft | 249 kts | 231° |
| 2026-05-06 19:26 | 51.90951 | 0.42190 | 5788 ft | 248 kts | 231° |
| 2026-05-06 19:26 | 51.89889 | 0.39995 | 5501 ft | 246 kts | 230° |
| 2026-05-06 19:26 | 51.88756 | 0.37931 | 5188 ft | 244 kts | 227° |
| 2026-05-06 19:26 | 51.87591 | 0.35952 | 4872 ft | 242 kts | 226° |
| 2026-05-06 19:27 | 51.86427 | 0.34015 | 4565 ft | 239 kts | 226° |
| 2026-05-06 19:27 | 51.85265 | 0.32101 | 4245 ft | 237 kts | 226° |
| 2026-05-06 19:27 | 51.84115 | 0.30213 | 3953 ft | 234 kts | 226° |
| 2026-05-06 19:27 | 51.82983 | 0.28361 | 3683 ft | 229 kts | 226° |
| 2026-05-06 19:28 | 51.81853 | 0.26571 | 3423 ft | 225 kts | 222° |
| 2026-05-06 19:28 | 51.80688 | 0.24909 | 3154 ft | 222 kts | 223° |
| 2026-05-06 19:28 | 51.79558 | 0.23285 | 3013 ft | 213 kts | 223° |
| 2026-05-06 19:28 | 51.78488 | 0.21755 | 3002 ft | 197 kts | 223° |
| 2026-05-06 19:29 | 51.77463 | 0.20295 | 3009 ft | 196 kts | 223° |
| 2026-05-06 19:29 | 51.76447 | 0.18850 | 3017 ft | 194 kts | 223° |
| 2026-05-06 19:29 | 51.75434 | 0.17396 | 2921 ft | 197 kts | 223° |
| 2026-05-06 19:29 | 51.74405 | 0.15910 | 2694 ft | 200 kts | 227° |
| 2026-05-06 19:30 | 51.73750 | 0.14031 | 2438 ft | 189 kts | 265° |
| 2026-05-06 19:30 | 51.73971 | 0.12088 | 2229 ft | 170 kts | 305° |
| 2026-05-06 19:30 | 51.74653 | 0.10536 | 2186 ft | 171 kts | 310° |
| 2026-05-06 19:30 | 51.75448 | 0.09125 | 2036 ft | 168 kts | 332° |
| 2026-05-06 19:31 | 51.76547 | 0.08799 | 2023 ft | 164 kts | 7° |
| 2026-05-06 19:31 | 51.77664 | 0.09114 | 2009 ft | 164 kts | 10° |
| 2026-05-06 19:31 | 51.79731 | 0.10385 | 2015 ft | 165 kts | 39° |
| 2026-05-06 19:32 | 51.80591 | 0.11611 | 1998 ft | 161 kts | 39° |
| 2026-05-06 19:32 | 51.81394 | 0.12786 | 1979 ft | 150 kts | 40° |
| 2026-05-06 19:32 | 51.82140 | 0.13906 | 1903 ft | 146 kts | 39° |
| 2026-05-06 19:32 | 51.82875 | 0.15013 | 1722 ft | 146 kts | 39° |
| 2026-05-06 19:33 | 51.83606 | 0.16114 | 1517 ft | 143 kts | 39° |
| 2026-05-06 19:33 | 51.84335 | 0.17212 | 1320 ft | 142 kts | 40° |
| 2026-05-06 19:33 | 51.85040 | 0.18289 | 1118 ft | 138 kts | 40° |
| 2026-05-06 19:33 | 51.85743 | 0.19337 | 925 ft | 138 kts | 39° |
| 2026-05-06 19:34 | 51.86449 | 0.20405 | 731 ft | 140 kts | 40° |
| 2026-05-06 19:34 | 51.87174 | 0.21484 | 517 ft | 144 kts | 41° |
| 2026-05-06 19:34 | 51.87900 | 0.22577 | 354 ft | 140 kts | 41° |
| 2026-05-06 19:34 | 51.88548 | 0.23541 | 340 ft | 103 kts | 43° |
| 2026-05-06 19:35 | 51.88912 | 0.24092 | 349 ft | 49 kts | 43° |
| 2026-05-06 19:35 | 51.89048 | 0.24344 | 348 ft | 21 kts | 59° |
| 2026-05-06 19:35 | 51.89112 | 0.24553 | 348 ft | 22 kts | 66° |
| 2026-05-06 19:35 | 51.89162 | 0.24764 | 350 ft | 17 kts | 70° |
| 2026-05-06 19:36 | 51.89165 | 0.24841 | 342 ft | 2 kts | 105° |
| 2026-05-06 19:36 | 51.89157 | 0.24912 | 350 ft | 9 kts | 89° |